createdAt,value
2022-08-17T00:00:43.702Z,20.30
2022-08-17T00:03:13.666Z,20.30
2022-08-17T00:05:45.014Z,20.30
2022-08-17T00:08:14.732Z,20.30
2022-08-17T00:10:45.409Z,20.20
2022-08-17T00:13:17.428Z,20.10
2022-08-17T00:15:48.195Z,20.10
2022-08-17T00:19:07.008Z,20.00
2022-08-17T00:21:10.384Z,20.00
2022-08-17T00:23:46.234Z,20.00
2022-08-17T00:26:44.544Z,19.90
2022-08-17T00:29:07.772Z,19.80
2022-08-17T00:31:37.809Z,19.80
2022-08-17T00:34:09.087Z,19.80
2022-08-17T00:36:37.208Z,19.80
2022-08-17T00:39:06.313Z,19.70
2022-08-17T00:41:36.048Z,19.70
2022-08-17T00:44:12.146Z,19.70
2022-08-17T00:46:44.186Z,19.60
2022-08-17T00:49:13.604Z,19.60
2022-08-17T00:51:45.656Z,19.60
2022-08-17T00:54:21.385Z,19.50
2022-08-17T00:56:54.459Z,19.50
2022-08-17T00:59:27.193Z,19.40
2022-08-17T01:01:56.507Z,19.40
2022-08-17T01:04:26.392Z,19.50
2022-08-17T01:06:55.738Z,19.50
2022-08-17T01:09:24.052Z,19.40
2022-08-17T01:11:52.934Z,19.40
2022-08-17T01:14:22.471Z,19.40
2022-08-17T01:16:52.438Z,19.40
2022-08-17T01:19:24.658Z,19.30
2022-08-17T01:21:59.038Z,19.30
2022-08-17T01:24:29.757Z,19.30
2022-08-17T01:26:58.028Z,19.30
2022-08-17T01:29:26.702Z,19.20
2022-08-17T01:31:58.730Z,19.20
2022-08-17T01:34:28.245Z,19.20
2022-08-17T01:37:11.393Z,19.10
2022-08-17T01:39:45.693Z,19.10
2022-08-17T01:42:19.175Z,19.10
2022-08-17T01:44:47.508Z,19.10
2022-08-17T01:47:15.685Z,19.00
2022-08-17T01:49:44.478Z,19.00
2022-08-17T01:52:12.961Z,18.90
2022-08-17T01:54:47.268Z,18.90
2022-08-17T01:57:15.814Z,18.90
2022-08-17T01:59:44.846Z,18.90
2022-08-17T02:04:59.675Z,18.70
2022-08-17T02:07:28.169Z,18.60
2022-08-17T02:09:57.511Z,18.60
2022-08-17T02:12:39.535Z,18.60
2022-08-17T02:15:12.365Z,18.50
2022-08-17T02:17:41.510Z,18.60
2022-08-17T02:20:11.810Z,18.60
2022-08-17T02:22:42.269Z,18.70
2022-08-17T02:25:16.176Z,18.70
2022-08-17T02:27:45.281Z,18.80
2022-08-17T02:30:59.953Z,18.80
2022-08-17T02:33:06.401Z,18.90
2022-08-17T02:35:37.657Z,18.80
2022-08-17T02:38:07.435Z,18.90
2022-08-17T02:40:39.016Z,18.90
2022-08-17T02:43:08.385Z,18.90
2022-08-17T02:45:37.493Z,18.90
2022-08-17T02:48:06.125Z,18.90
2022-08-17T02:50:34.395Z,18.90
2022-08-17T02:53:02.950Z,18.80
2022-08-17T02:55:34.742Z,18.80
2022-08-17T02:58:04.833Z,18.80
2022-08-17T03:00:35.858Z,18.70
2022-08-17T03:03:06.824Z,18.70
2022-08-17T03:05:36.701Z,18.70
2022-08-17T03:08:07.819Z,18.80
2022-08-17T03:10:42.760Z,18.80
2022-08-17T03:13:14.340Z,18.80
2022-08-17T03:15:45.492Z,18.70
2022-08-17T03:18:24.557Z,18.80
2022-08-17T03:20:55.232Z,18.80
2022-08-17T03:23:23.969Z,18.80
2022-08-17T03:25:54.081Z,18.80
2022-08-17T03:28:24.845Z,18.90
2022-08-17T03:30:53.280Z,18.80
2022-08-17T03:33:21.725Z,18.80
2022-08-17T03:35:49.738Z,18.90
2022-08-17T03:38:18.911Z,18.80
2022-08-17T03:40:56.361Z,18.90
2022-08-17T03:43:32.178Z,18.90
2022-08-17T03:46:27.121Z,18.90
2022-08-17T03:49:14.901Z,18.90
2022-08-17T03:52:00.611Z,19.00
2022-08-17T03:54:46.608Z,19.00
2022-08-17T03:57:15.127Z,19.10
2022-08-17T03:59:45.367Z,19.20
2022-08-17T04:02:19.007Z,19.20
2022-08-17T04:04:50.585Z,19.20
2022-08-17T04:07:19.055Z,19.30
2022-08-17T04:09:47.641Z,19.30
2022-08-17T04:12:16.515Z,19.40
2022-08-17T04:14:52.874Z,19.40
2022-08-17T04:17:24.364Z,19.50
2022-08-17T04:19:53.640Z,19.50
2022-08-17T04:22:31.262Z,19.60
2022-08-17T04:25:04.950Z,19.70
2022-08-17T04:27:33.284Z,19.80
2022-08-17T04:30:02.955Z,20.00
2022-08-17T04:33:04.018Z,20.20
2022-08-17T04:35:22.142Z,20.40
2022-08-17T04:37:51.285Z,20.60
2022-08-17T04:40:37.387Z,20.80
2022-08-17T04:43:07.676Z,20.90
2022-08-17T04:45:40.319Z,21.00
2022-08-17T04:48:23.582Z,21.10
2022-08-17T04:51:00.868Z,21.20
2022-08-17T04:53:29.899Z,21.20
2022-08-17T04:55:59.235Z,21.30
2022-08-17T04:58:27.832Z,21.30
2022-08-17T05:00:57.345Z,21.40
2022-08-17T05:03:25.740Z,21.40
2022-08-17T05:05:54.132Z,21.50
2022-08-17T05:08:22.577Z,21.50
2022-08-17T05:10:51.213Z,21.60
2022-08-17T05:13:21.600Z,21.70
2022-08-17T05:15:54.745Z,21.80
2022-08-17T05:18:24.698Z,21.80
2022-08-17T05:20:53.995Z,21.80
2022-08-17T05:23:24.800Z,21.90
2022-08-17T05:25:55.986Z,21.90
2022-08-17T05:28:28.170Z,21.90
2022-08-17T05:31:00.548Z,21.90
2022-08-17T05:33:33.043Z,22.00
2022-08-17T05:36:03.569Z,22.10
2022-08-17T05:38:33.331Z,22.10
2022-08-17T05:41:04.070Z,22.10
2022-08-17T05:43:35.219Z,22.00
2022-08-17T05:46:07.680Z,21.90
2022-08-17T05:48:41.392Z,21.90
2022-08-17T05:51:33.752Z,21.90
2022-08-17T05:54:16.802Z,21.90
2022-08-17T05:57:00.432Z,22.00
2022-08-17T05:59:36.088Z,22.20
2022-08-17T06:02:14.778Z,22.30
2022-08-17T06:04:53.602Z,22.50
2022-08-17T06:07:26.696Z,22.60
2022-08-17T06:10:04.558Z,22.80
2022-08-17T06:12:48.788Z,23.00
2022-08-17T06:15:28.605Z,23.10
2022-08-17T06:17:59.451Z,23.20
2022-08-17T06:20:36.648Z,23.30
2022-08-17T06:23:10.249Z,23.40
2022-08-17T06:25:45.716Z,23.40
2022-08-17T06:28:18.006Z,23.40
2022-08-17T06:31:00.757Z,23.40
2022-08-17T06:33:35.576Z,23.40
2022-08-17T06:36:18.109Z,23.50
2022-08-17T06:38:58.831Z,23.50
2022-08-17T06:41:37.809Z,23.50
2022-08-17T06:44:43.186Z,23.50
2022-08-17T06:47:08.932Z,23.50
2022-08-17T06:49:50.714Z,23.50
2022-08-17T06:52:45.858Z,23.50
2022-08-17T06:55:21.243Z,23.50
2022-08-17T06:57:53.791Z,23.50
2022-08-17T07:00:25.463Z,23.50
2022-08-17T07:02:58.481Z,23.50
2022-08-17T07:05:31.813Z,23.50
2022-08-17T07:08:06.053Z,23.60
2022-08-17T07:10:43.911Z,23.60
2022-08-17T07:13:29.279Z,23.80
2022-08-17T07:16:12.908Z,23.80
2022-08-17T07:18:40.840Z,24.00
2022-08-17T07:21:20.724Z,24.10
2022-08-17T07:24:04.304Z,24.20
2022-08-17T07:26:32.843Z,24.30
2022-08-17T07:29:02.939Z,24.30
2022-08-17T07:31:33.818Z,24.30
2022-08-17T07:34:07.918Z,24.30
2022-08-17T07:36:35.933Z,24.40
2022-08-17T07:39:06.549Z,24.50
2022-08-17T07:41:53.310Z,24.50
2022-08-17T07:44:27.946Z,24.50
2022-08-17T07:47:14.271Z,24.60
2022-08-17T07:49:45.469Z,24.50
2022-08-17T07:52:51.800Z,24.70
2022-08-17T07:55:28.125Z,24.70
2022-08-17T07:57:57.365Z,24.60
2022-08-17T08:00:31.536Z,24.60
2022-08-17T08:03:15.878Z,24.60
2022-08-17T08:05:56.672Z,24.50
2022-08-17T08:08:31.472Z,24.40
2022-08-17T08:11:06.293Z,24.40
2022-08-17T08:13:36.301Z,24.30
2022-08-17T08:16:25.408Z,24.30
2022-08-17T08:18:58.124Z,24.20
2022-08-17T08:21:37.275Z,24.20
2022-08-17T08:24:22.864Z,24.20
2022-08-17T08:26:59.431Z,24.20
2022-08-17T08:29:37.930Z,24.20
2022-08-17T08:32:16.440Z,24.10
2022-08-17T08:35:01.386Z,24.00
2022-08-17T08:37:44.839Z,23.90
2022-08-17T08:40:32.539Z,23.80
2022-08-17T08:43:13.458Z,23.70
2022-08-17T08:45:56.721Z,23.60
2022-08-17T08:48:56.281Z,23.60
2022-08-17T08:51:35.869Z,23.60
2022-08-17T08:54:11.849Z,23.60
2022-08-17T08:57:11.946Z,23.50
2022-08-17T08:59:41.788Z,23.50
2022-08-17T09:02:23.644Z,23.40
2022-08-17T09:05:14.246Z,23.40
2022-08-17T09:07:54.697Z,23.50
2022-08-17T09:10:29.341Z,23.50
2022-08-17T09:13:10.223Z,23.50
2022-08-17T09:15:46.065Z,23.60
2022-08-17T09:18:59.844Z,23.60
2022-08-17T09:21:18.587Z,23.60
2022-08-17T09:23:59.718Z,23.60
2022-08-17T09:26:35.932Z,23.60
2022-08-17T09:29:09.953Z,23.60
2022-08-17T09:31:49.425Z,23.50
2022-08-17T09:34:28.170Z,23.50
2022-08-17T09:37:12.532Z,23.40
2022-08-17T09:39:46.510Z,23.20
2022-08-17T09:42:28.044Z,23.20
2022-08-17T09:45:07.633Z,23.20
2022-08-17T09:47:46.447Z,23.20
2022-08-17T09:50:55.574Z,23.20
2022-08-17T09:53:10.372Z,23.20
2022-08-17T09:55:51.103Z,23.20
2022-08-17T09:58:30.469Z,23.20
2022-08-17T10:01:06.145Z,23.20
2022-08-17T10:03:50.757Z,22.90
2022-08-17T10:06:25.236Z,23.00
2022-08-17T10:09:06.536Z,22.80
2022-08-17T10:11:57.646Z,22.60
2022-08-17T10:14:38.085Z,22.40
2022-08-17T10:17:18.909Z,22.20
2022-08-17T10:19:56.381Z,22.10
2022-08-17T10:22:52.679Z,22.10
2022-08-17T10:25:56.743Z,22.30
2022-08-17T10:28:55.284Z,22.50
2022-08-17T10:31:36.284Z,22.90
2022-08-17T10:34:24.657Z,23.10
2022-08-17T10:37:02.467Z,23.30
2022-08-17T10:39:52.408Z,23.50
2022-08-17T10:42:30.519Z,23.70
2022-08-17T10:45:08.007Z,24.00
2022-08-17T10:48:04.718Z,24.20
2022-08-17T10:51:00.656Z,24.50
2022-08-17T10:54:01.572Z,24.60
2022-08-17T10:56:50.770Z,24.80
2022-08-17T10:59:50.713Z,24.90
2022-08-17T11:02:27.947Z,25.00
2022-08-17T11:05:14.959Z,25.10
2022-08-17T11:07:59.766Z,25.30
2022-08-17T11:11:04.443Z,25.40
2022-08-17T11:13:40.971Z,25.40
2022-08-17T11:16:27.841Z,25.40
2022-08-17T11:19:28.392Z,25.20
2022-08-17T11:22:49.675Z,25.30
2022-08-17T11:25:20.740Z,25.40
2022-08-17T11:27:54.036Z,25.50
2022-08-17T11:30:48.723Z,25.50
2022-08-17T11:34:05.992Z,25.50
2022-08-17T11:37:06.223Z,25.50
2022-08-17T11:39:55.626Z,25.50
2022-08-17T11:42:34.370Z,25.60
2022-08-17T11:45:32.390Z,25.60
2022-08-17T11:48:28.174Z,25.70
2022-08-17T11:51:24.522Z,25.70
2022-08-17T11:57:02.180Z,25.60
2022-08-17T11:59:59.567Z,25.40
2022-08-17T12:02:48.184Z,25.50
2022-08-17T12:05:34.313Z,25.60
2022-08-17T12:08:16.013Z,26.00
2022-08-17T12:10:55.292Z,26.30
2022-08-17T12:13:30.519Z,26.70
2022-08-17T12:16:07.415Z,27.10
2022-08-17T12:18:41.685Z,27.50
2022-08-17T12:21:41.956Z,27.90
2022-08-17T12:24:29.256Z,28.20
2022-08-17T12:26:59.646Z,28.50
2022-08-17T12:29:35.152Z,28.90
2022-08-17T12:32:08.730Z,29.60
2022-08-17T12:34:40.986Z,31.10
2022-08-17T12:37:16.685Z,32.50
2022-08-17T12:39:52.434Z,34.00
2022-08-17T12:42:26.384Z,34.60
2022-08-17T12:44:54.437Z,35.20
2022-08-17T12:47:23.312Z,36.00
2022-08-17T12:49:53.833Z,36.70
2022-08-17T12:52:24.985Z,37.20
2022-08-17T12:54:57.108Z,37.70
2022-08-17T12:57:28.043Z,38.10
2022-08-17T13:00:00.242Z,38.10
2022-08-17T13:02:45.217Z,37.90
2022-08-17T13:05:23.605Z,38.10
2022-08-17T13:07:53.093Z,38.20
2022-08-17T13:10:31.664Z,38.50
2022-08-17T13:13:04.741Z,38.30
2022-08-17T13:15:44.493Z,38.10
2022-08-17T13:18:42.748Z,38.40
2022-08-17T13:21:30.446Z,38.80
2022-08-17T13:24:00.818Z,38.40
2022-08-17T13:26:34.535Z,38.20
2022-08-17T13:29:06.331Z,38.10
2022-08-17T13:31:48.316Z,37.50
2022-08-17T13:34:36.937Z,37.00
2022-08-17T13:37:32.681Z,36.90
2022-08-17T13:40:05.672Z,36.80
2022-08-17T13:42:52.600Z,37.00
2022-08-17T13:45:43.428Z,37.10
2022-08-17T13:48:20.751Z,36.90
2022-08-17T13:51:03.651Z,36.40
2022-08-17T13:53:50.785Z,36.10
2022-08-17T13:56:34.972Z,35.90
2022-08-17T13:59:10.164Z,35.50
2022-08-17T14:01:42.894Z,34.90
2022-08-17T14:04:13.842Z,34.50
2022-08-17T14:06:54.060Z,34.20
2022-08-17T14:09:26.624Z,34.10
2022-08-17T14:11:55.940Z,34.20
2022-08-17T14:14:24.428Z,34.10
2022-08-17T14:16:53.185Z,33.90
2022-08-17T14:19:22.130Z,33.70
2022-08-17T14:21:51.560Z,33.60
2022-08-17T14:24:26.327Z,33.20
2022-08-17T14:26:54.673Z,33.20
2022-08-17T14:29:24.769Z,33.20
2022-08-17T14:31:54.579Z,33.40
2022-08-17T14:34:24.618Z,33.60
2022-08-17T14:36:52.973Z,33.70
2022-08-17T14:39:21.572Z,33.60
2022-08-17T14:41:53.280Z,33.40
2022-08-17T14:44:21.203Z,33.30
2022-08-17T14:46:53.933Z,33.10
2022-08-17T14:49:21.850Z,33.10
2022-08-17T14:51:50.220Z,32.90
2022-08-17T14:54:33.422Z,32.70
2022-08-17T14:57:22.764Z,32.60
2022-08-17T14:59:54.838Z,32.50
2022-08-17T15:02:30.158Z,32.40
2022-08-17T15:05:05.048Z,32.20
2022-08-17T15:07:33.644Z,32.20
2022-08-17T15:10:02.440Z,32.00
2022-08-17T15:12:33.687Z,31.90
2022-08-17T15:15:04.789Z,31.80
2022-08-17T15:17:45.020Z,31.70
2022-08-17T15:20:17.140Z,31.50
2022-08-17T15:22:49.329Z,31.50
2022-08-17T15:25:19.034Z,31.40
2022-08-17T15:27:48.424Z,31.20
2022-08-17T15:30:16.474Z,31.20
2022-08-17T15:32:51.282Z,31.20
2022-08-17T15:35:28.296Z,31.20
2022-08-17T15:37:58.233Z,31.10
2022-08-17T15:40:26.666Z,31.20
2022-08-17T15:42:57.852Z,31.20
2022-08-17T15:45:28.240Z,31.20
2022-08-17T15:47:58.032Z,31.20
2022-08-17T15:50:26.491Z,31.00
2022-08-17T15:53:00.032Z,30.90
2022-08-17T15:55:29.981Z,30.80
2022-08-17T15:57:59.869Z,30.70
2022-08-17T16:00:28.504Z,30.50
2022-08-17T16:03:44.451Z,30.40
2022-08-17T16:05:48.897Z,30.20
2022-08-17T16:08:21.088Z,30.00
2022-08-17T16:10:50.132Z,29.90
2022-08-17T16:13:20.098Z,29.70
2022-08-17T16:15:56.702Z,29.60
2022-08-17T16:18:30.885Z,29.50
2022-08-17T16:21:19.681Z,29.30
2022-08-17T16:23:48.589Z,29.20
2022-08-17T16:26:16.806Z,29.00
2022-08-17T16:28:46.332Z,28.90
2022-08-17T16:31:15.614Z,28.80
2022-08-17T16:34:16.162Z,28.70
2022-08-17T16:36:33.817Z,28.50
2022-08-17T16:39:02.294Z,28.50
2022-08-17T16:41:46.072Z,28.30
2022-08-17T16:44:19.512Z,28.10
2022-08-17T16:46:49.087Z,28.00
2022-08-17T16:49:35.466Z,28.00
2022-08-17T16:52:10.929Z,27.80
2022-08-17T16:54:43.316Z,27.70
2022-08-17T16:57:12.559Z,27.60
2022-08-17T16:59:47.774Z,27.60
2022-08-17T17:02:17.183Z,27.40
2022-08-17T17:04:52.575Z,27.40
2022-08-17T17:07:49.583Z,27.30
2022-08-17T17:10:23.616Z,27.20
2022-08-17T17:13:02.090Z,27.20
2022-08-17T17:15:43.370Z,27.20
2022-08-17T17:18:15.324Z,27.10
2022-08-17T17:20:50.212Z,27.10
2022-08-17T17:23:31.190Z,27.10
2022-08-17T17:26:06.587Z,27.00
2022-08-17T17:28:40.472Z,26.90
2022-08-17T17:31:15.427Z,26.90
2022-08-17T17:33:47.361Z,26.90
2022-08-17T17:36:28.480Z,26.80
2022-08-17T17:39:04.270Z,26.70
2022-08-17T17:41:48.132Z,26.70
2022-08-17T17:44:19.817Z,26.60
2022-08-17T17:46:54.335Z,26.60
2022-08-17T17:49:22.611Z,26.60
2022-08-17T17:52:07.874Z,26.50
2022-08-17T17:54:48.630Z,26.50
2022-08-17T17:57:24.919Z,26.50
2022-08-17T17:59:59.484Z,26.50
2022-08-17T18:02:52.078Z,26.40
2022-08-17T18:05:44.390Z,26.30
2022-08-17T18:08:31.880Z,26.30
2022-08-17T18:11:14.813Z,26.30
2022-08-17T18:14:14.391Z,26.20
2022-08-17T18:16:44.468Z,26.10
2022-08-17T18:19:15.966Z,26.00
2022-08-17T18:21:48.224Z,25.90
2022-08-17T18:24:16.544Z,25.80
2022-08-17T18:26:51.196Z,25.70
2022-08-17T18:29:31.464Z,25.60
2022-08-17T18:32:25.353Z,25.60
2022-08-17T18:34:57.453Z,25.50
2022-08-17T18:37:43.695Z,25.30
2022-08-17T18:40:37.526Z,25.30
2022-08-17T18:43:15.123Z,25.20
2022-08-17T18:45:46.988Z,25.10
2022-08-17T18:48:25.765Z,25.00
2022-08-17T18:50:58.211Z,24.90
2022-08-17T18:53:35.550Z,24.90
2022-08-17T18:56:25.785Z,24.80
2022-08-17T18:59:02.340Z,24.90
2022-08-17T19:01:47.583Z,24.80
2022-08-17T19:04:36.512Z,24.70
2022-08-17T19:07:24.183Z,24.60
2022-08-17T19:09:56.393Z,24.50
2022-08-17T19:12:34.264Z,24.50
2022-08-17T19:15:03.350Z,24.40
2022-08-17T19:17:38.575Z,24.40
2022-08-17T19:20:15.176Z,24.30
2022-08-17T19:22:56.429Z,24.30
2022-08-17T19:25:31.524Z,24.20
2022-08-17T19:28:15.336Z,24.10
2022-08-17T19:30:51.130Z,24.10
2022-08-17T19:33:20.079Z,24.00
2022-08-17T19:35:54.459Z,24.10
2022-08-17T19:38:36.507Z,24.00
2022-08-17T19:41:10.615Z,23.90
2022-08-17T19:43:58.818Z,23.90
2022-08-17T19:46:36.107Z,23.80
2022-08-17T19:49:16.602Z,23.80
2022-08-17T19:51:50.543Z,23.70
2022-08-17T19:54:26.995Z,23.70
2022-08-17T19:57:01.676Z,23.70
2022-08-17T19:59:48.804Z,23.70
2022-08-17T20:02:29.096Z,23.70
2022-08-17T20:05:02.895Z,23.70
2022-08-17T20:07:40.480Z,23.70
2022-08-17T20:10:15.541Z,23.70
2022-08-17T20:12:45.890Z,23.70
2022-08-17T20:15:21.303Z,23.70
2022-08-17T20:17:50.453Z,23.60
2022-08-17T20:20:29.742Z,23.60
2022-08-17T20:23:02.265Z,23.60
2022-08-17T20:25:40.415Z,23.60
2022-08-17T20:28:21.211Z,23.50
2022-08-17T20:30:50.972Z,23.50
2022-08-17T20:33:28.298Z,23.50
2022-08-17T20:36:21.970Z,23.50
2022-08-17T20:38:53.316Z,23.60
2022-08-17T20:41:26.134Z,23.60
2022-08-17T20:44:06.180Z,23.60
2022-08-17T20:46:52.085Z,23.50
2022-08-17T20:49:27.932Z,23.50
2022-08-17T20:52:02.628Z,23.40
2022-08-17T20:54:46.139Z,23.40
2022-08-17T20:57:48.556Z,23.40
2022-08-17T21:00:42.358Z,23.40
2022-08-17T21:03:50.423Z,23.40
2022-08-17T21:06:23.171Z,23.40
2022-08-17T21:08:55.366Z,23.50
2022-08-17T21:11:57.114Z,23.50
2022-08-17T21:14:59.685Z,23.50
2022-08-17T21:17:51.403Z,23.60
2022-08-17T21:20:32.258Z,23.60
2022-08-17T21:23:18.629Z,23.60
2022-08-17T21:26:11.103Z,23.70
2022-08-17T21:29:01.429Z,23.70
2022-08-17T21:31:45.269Z,23.70
2022-08-17T21:34:26.631Z,23.60
2022-08-17T21:36:56.782Z,23.50
2022-08-17T21:39:34.176Z,23.50
2022-08-17T21:42:02.709Z,23.50
2022-08-17T21:44:35.490Z,23.50
2022-08-17T21:47:20.156Z,23.40
2022-08-17T21:49:49.015Z,23.40
2022-08-17T21:52:25.338Z,23.50
2022-08-17T21:54:56.584Z,23.40
2022-08-17T21:57:28.182Z,23.40
2022-08-17T21:59:58.599Z,23.40
2022-08-17T22:02:32.872Z,23.40
2022-08-17T22:05:02.909Z,23.40
2022-08-17T22:07:40.969Z,23.40
2022-08-17T22:10:29.248Z,23.40
2022-08-17T22:13:05.817Z,23.30
2022-08-17T22:15:47.654Z,23.30
2022-08-17T22:18:21.071Z,23.30
2022-08-17T22:20:52.042Z,23.30
2022-08-17T22:23:45.145Z,23.30
2022-08-17T22:26:16.011Z,23.30
2022-08-17T22:28:46.907Z,23.20
2022-08-17T22:31:17.243Z,23.20
2022-08-17T22:33:48.943Z,23.20
2022-08-17T22:36:29.578Z,23.20
2022-08-17T22:38:59.689Z,23.10
2022-08-17T22:41:41.971Z,23.00
2022-08-17T22:44:23.121Z,22.90
2022-08-17T22:47:04.626Z,22.90
2022-08-17T22:49:38.802Z,22.70
2022-08-17T22:52:32.824Z,22.60
2022-08-17T22:55:23.311Z,22.50
2022-08-17T22:58:09.807Z,22.50
2022-08-17T23:00:40.604Z,22.40
2022-08-17T23:03:16.238Z,22.30
2022-08-17T23:05:49.032Z,22.10
2022-08-17T23:08:21.290Z,22.10
2022-08-17T23:10:50.207Z,22.00
2022-08-17T23:13:21.660Z,22.00
2022-08-17T23:15:51.919Z,21.90
2022-08-17T23:18:19.932Z,21.90
2022-08-17T23:20:49.302Z,21.80
2022-08-17T23:23:23.369Z,21.80
2022-08-17T23:25:52.108Z,21.80
2022-08-17T23:28:21.632Z,21.70
2022-08-17T23:30:49.597Z,21.70
2022-08-17T23:33:21.245Z,21.70
2022-08-17T23:35:50.720Z,21.60
2022-08-17T23:38:19.411Z,21.60
2022-08-17T23:40:47.406Z,21.60
2022-08-17T23:43:23.937Z,21.60
2022-08-17T23:45:54.838Z,21.60
2022-08-17T23:48:32.740Z,21.50
2022-08-17T23:51:09.501Z,21.50
2022-08-17T23:53:41.813Z,21.50
2022-08-17T23:56:11.825Z,21.50
2022-08-17T23:58:43.225Z,21.40
